Time;durP1;ratioP1;P1;durP2;ratioP2;P2;SDS_P1;SDS_P2;PMS_P1;PMS_P2;Temp;Humidity;BMP_temperature;BMP_pressure;BME280_temperature;BME280_humidity;BME280_pressure;Samples;Min_cycle;Max_cycle;Signal;HPM_P1;HPM_P2
2020/12/27 00:01:00;;;;;;;47.85;16.05;;;-1.80;99.90;;;;;;5043161;28;20049;-69
2020/12/27 00:03:27;;;;;;;45.13;13.90;;;-1.80;99.90;;;;;;5052293;28;20045;-69
2020/12/27 00:05:53;;;;;;;46.70;13.70;;;-1.80;99.90;;;;;;5044249;28;20053;-69
2020/12/27 00:08:20;;;;;;;42.33;14.98;;;-1.70;99.90;;;;;;5034758;28;20037;-69
2020/12/27 00:10:46;;;;;;;36.63;13.45;;;-1.80;99.90;;;;;;5044695;28;20073;-69
2020/12/27 00:13:13;;;;;;;46.72;13.60;;;-1.80;99.90;;;;;;5054032;28;20095;-70
2020/12/27 00:15:40;;;;;;;47.03;14.98;;;-1.80;99.90;;;;;;5041003;28;20699;-69
2020/12/27 00:18:06;;;;;;;54.67;14.02;;;-1.70;99.90;;;;;;5038787;28;20034;-69
2020/12/27 00:20:33;;;;;;;46.88;14.25;;;-1.70;99.90;;;;;;5049164;28;20041;-70
2020/12/27 00:23:02;;;;;;;43.53;13.93;;;-1.80;99.90;;;;;;5033625;28;20046;-69
2020/12/27 00:25:31;;;;;;;47.72;16.45;;;-1.80;99.90;;;;;;5046636;28;20083;-69
2020/12/27 00:27:58;;;;;;;43.88;13.30;;;-1.90;99.90;;;;;;5037591;28;20037;-69
2020/12/27 00:30:26;;;;;;;40.75;15.30;;;-1.90;99.90;;;;;;5048980;28;20052;-69
2020/12/27 00:32:53;;;;;;;47.65;14.90;;;-1.90;99.90;;;;;;5022080;28;20057;-69
2020/12/27 00:35:19;;;;;;;43.28;14.50;;;-1.90;99.90;;;;;;5049311;28;20041;-69
2020/12/27 00:37:46;;;;;;;46.13;14.60;;;-1.90;99.90;;;;;;5032826;28;20045;-69
2020/12/27 00:40:13;;;;;;;40.03;12.10;;;-1.90;99.90;;;;;;5044873;28;20058;-69
2020/12/27 00:42:39;;;;;;;37.25;12.40;;;-1.90;99.90;;;;;;5045299;28;20041;-69
2020/12/27 00:45:06;;;;;;;28.52;11.15;;;-1.90;99.90;;;;;;5051026;28;20040;-69
2020/12/27 00:47:32;;;;;;;30.83;12.07;;;-1.90;99.90;;;;;;5068153;28;20045;-69
2020/12/27 00:50:00;;;;;;;25.63;10.45;;;-1.90;99.90;;;;;;5037886;28;20042;-70
2020/12/27 00:52:27;;;;;;;29.45;10.02;;;-1.80;99.90;;;;;;5025139;28;20033;-69
2020/12/27 00:54:54;;;;;;;31.65;11.48;;;-1.80;99.90;;;;;;5033593;28;20049;-69
2020/12/27 00:57:20;;;;;;;26.33;9.45;;;-1.80;99.90;;;;;;5028253;28;20038;-69
2020/12/27 00:59:47;;;;;;;26.20;9.40;;;-1.80;99.90;;;;;;5041646;28;20049;-69
2020/12/27 01:02:17;;;;;;;30.65;9.00;;;-1.80;99.90;;;;;;5031620;28;20041;-70
2020/12/27 01:04:47;;;;;;;21.85;9.02;;;-1.80;99.90;;;;;;5045775;28;20537;-70
2020/12/27 01:07:18;;;;;;;22.25;8.18;;;-1.80;99.90;;;;;;5037627;28;20041;-69
2020/12/27 01:09:51;;;;;;;28.80;9.98;;;-1.80;99.90;;;;;;5048145;28;20052;-69
2020/12/27 01:12:17;;;;;;;29.40;9.75;;;-1.80;99.90;;;;;;5049715;28;20500;-69
2020/12/27 01:14:44;;;;;;;28.08;10.40;;;-1.80;99.90;;;;;;5048084;28;20132;-69
2020/12/27 01:17:24;;;;;;;26.52;10.25;;;-1.90;99.90;;;;;;5047779;28;20053;-69
2020/12/27 01:19:50;;;;;;;30.25;10.55;;;-1.90;99.90;;;;;;5029943;28;20053;-69
2020/12/27 01:22:17;;;;;;;29.75;10.45;;;-1.90;99.90;;;;;;5049087;28;20110;-69
2020/12/27 01:25:02;;;;;;;26.05;10.90;;;-2.00;99.90;;;;;;5043251;28;20056;-69
2020/12/27 01:27:29;;;;;;;26.50;9.40;;;-2.00;99.90;;;;;;5048599;28;20037;-69
2020/12/27 01:29:56;;;;;;;25.88;10.23;;;-2.00;99.90;;;;;;5047911;28;20076;-70
2020/12/27 01:32:36;;;;;;;25.80;9.10;;;-2.00;99.90;;;;;;5032069;28;20057;-69
2020/12/27 01:35:02;;;;;;;24.98;8.65;;;-2.00;99.90;;;;;;5050184;28;20041;-69
2020/12/27 01:37:29;;;;;;;26.58;9.98;;;-2.00;99.90;;;;;;5040621;28;20049;-69
2020/12/27 01:39:56;;;;;;;24.35;9.50;;;-2.10;99.90;;;;;;5038581;28;20099;-69
2020/12/27 01:42:23;;;;;;;27.63;9.57;;;-2.10;99.90;;;;;;5037741;28;20132;-69
2020/12/27 01:44:50;;;;;;;29.83;9.93;;;-2.20;99.90;;;;;;5046026;28;20090;-69
2020/12/27 01:47:43;;;;;;;25.75;9.77;;;-2.20;99.90;;;;;;5034721;28;20124;-69
2020/12/27 01:50:09;;;;;;;25.02;9.13;;;-2.20;99.90;;;;;;5062855;28;20764;-69
2020/12/27 01:52:36;;;;;;;26.33;10.45;;;-2.30;99.90;;;;;;5039620;28;20064;-69
2020/12/27 01:55:13;;;;;;;23.55;8.70;;;-2.30;99.90;;;;;;5049589;28;20048;-69
2020/12/27 01:58:02;;;;;;;25.13;9.25;;;-2.40;99.90;;;;;;5043406;28;20052;-69
2020/12/27 02:00:29;;;;;;;24.95;8.90;;;-2.40;99.90;;;;;;5049794;28;20098;-69
2020/12/27 02:03:21;;;;;;;22.52;7.63;;;-2.40;99.90;;;;;;5045295;28;20594;-70
2020/12/27 02:05:53;;;;;;;25.65;9.10;;;-2.40;99.90;;;;;;5031159;28;20045;-69
2020/12/27 02:08:20;;;;;;;25.52;9.13;;;-2.50;99.90;;;;;;5038155;28;20037;-69
2020/12/27 02:11:06;;;;;;;31.48;9.77;;;-2.50;99.90;;;;;;5023661;28;20139;-69
2020/12/27 02:13:33;;;;;;;27.48;10.45;;;-2.50;99.90;;;;;;5045164;28;20633;-69
2020/12/27 02:16:00;;;;;;;24.58;8.77;;;-2.60;99.90;;;;;;5041109;28;20045;-69
2020/12/27 02:18:33;;;;;;;25.80;8.32;;;-2.60;99.90;;;;;;5040827;28;20049;-69
2020/12/27 02:21:02;;;;;;;24.27;9.23;;;-2.60;99.90;;;;;;5031544;28;20516;-69
2020/12/27 02:23:31;;;;;;;23.70;8.70;;;-2.60;99.90;;;;;;5033224;28;20041;-69
2020/12/27 02:26:06;;;;;;;29.63;7.90;;;-2.60;99.90;;;;;;5043744;28;20051;-69
2020/12/27 02:28:45;;;;;;;27.58;8.93;;;-2.60;99.90;;;;;;5044593;28;20091;-69
2020/12/27 02:31:14;;;;;;;30.88;9.77;;;-2.60;99.90;;;;;;5045289;28;20075;-69
2020/12/27 02:33:59;;;;;;;25.08;9.32;;;-2.70;99.90;;;;;;5044529;28;20047;-69
2020/12/27 02:36:28;;;;;;;19.80;9.07;;;-2.70;99.90;;;;;;5050341;28;20045;-69
2020/12/27 02:38:57;;;;;;;28.60;9.18;;;-2.70;99.90;;;;;;5042626;28;20045;-69
2020/12/27 02:41:33;;;;;;;24.25;8.02;;;-2.70;99.90;;;;;;5041625;28;20480;-69
2020/12/27 02:44:06;;;;;;;27.97;9.20;;;-2.70;99.90;;;;;;5038793;28;20064;-69
2020/12/27 02:46:42;;;;;;;24.00;7.90;;;-2.70;99.90;;;;;;5062493;28;20128;-69
2020/12/27 02:49:28;;;;;;;21.05;7.97;;;-2.70;99.90;;;;;;5049733;28;20051;-69
2020/12/27 02:52:01;;;;;;;20.35;7.82;;;-2.70;99.90;;;;;;5019297;28;20684;-68
2020/12/27 02:54:28;;;;;;;21.75;7.55;;;-2.80;99.90;;;;;;5025212;28;20048;-69
2020/12/27 02:56:55;;;;;;;18.55;8.43;;;-2.80;99.90;;;;;;5047679;28;20045;-69
2020/12/27 02:59:22;;;;;;;23.52;7.88;;;-2.80;99.90;;;;;;5045868;28;20057;-69
2020/12/27 03:01:52;;;;;;;26.52;8.50;;;-2.90;99.90;;;;;;5051223;28;20044;-69
2020/12/27 03:04:29;;;;;;;16.48;7.47;;;-2.90;99.90;;;;;;5032697;28;20168;-69
2020/12/27 03:07:02;;;;;;;24.00;8.15;;;-3.00;99.90;;;;;;5044842;28;20048;-69
2020/12/27 03:09:40;;;;;;;19.85;7.47;;;-3.00;99.90;;;;;;5042356;28;20056;-70
2020/12/27 03:12:19;;;;;;;22.70;8.13;;;-3.00;99.90;;;;;;5033395;28;20056;-69
2020/12/27 03:14:45;;;;;;;21.95;7.65;;;-3.00;99.90;;;;;;5050900;28;20076;-69
2020/12/27 03:17:31;;;;;;;20.50;7.65;;;-3.00;99.90;;;;;;5052068;28;20056;-69
2020/12/27 03:20:16;;;;;;;23.73;7.82;;;-3.10;99.90;;;;;;5047345;28;20056;-69
2020/12/27 03:22:57;;;;;;;23.52;7.65;;;-3.10;99.90;;;;;;5045524;28;20091;-70
2020/12/27 03:25:39;;;;;;;19.45;8.25;;;-3.10;99.90;;;;;;5035339;28;20053;-69
2020/12/27 03:28:06;;;;;;;25.23;8.50;;;-3.10;99.90;;;;;;5034412;28;20053;-70
2020/12/27 03:30:33;;;;;;;18.70;7.68;;;-3.10;99.90;;;;;;5036901;28;20148;-70
2020/12/27 03:33:04;;;;;;;21.08;8.02;;;-3.10;99.90;;;;;;5045801;28;20443;-69
2020/12/27 03:35:37;;;;;;;20.17;7.53;;;-3.10;99.90;;;;;;5060946;28;20053;-69
2020/12/27 03:38:03;;;;;;;21.60;8.30;;;-3.10;99.90;;;;;;5046593;28;20511;-69
2020/12/27 03:40:36;;;;;;;21.60;7.72;;;-3.10;99.90;;;;;;5025076;28;20072;-69
2020/12/27 03:43:28;;;;;;;24.80;8.45;;;-3.10;99.90;;;;;;5031726;28;20049;-69
2020/12/27 03:45:55;;;;;;;20.38;7.30;;;-3.20;99.90;;;;;;5042406;28;20065;-69
2020/12/27 03:48:49;;;;;;;25.05;8.02;;;-3.20;99.90;;;;;;5049141;28;20041;-69
2020/12/27 03:51:35;;;;;;;19.67;7.53;;;-3.20;99.90;;;;;;5052227;28;20056;-70
2020/12/27 03:54:01;;;;;;;22.67;7.10;;;-3.10;99.90;;;;;;5048082;28;20052;-69
2020/12/27 03:56:51;;;;;;;17.70;6.63;;;-3.20;99.90;;;;;;4998059;28;20274;-69
2020/12/27 03:59:36;;;;;;;19.73;6.78;;;-3.20;99.90;;;;;;4979228;28;20727;-69
2020/12/27 04:02:17;;;;;;;20.40;6.90;;;-3.30;99.90;;;;;;4976110;28;20133;-69
2020/12/27 04:04:44;;;;;;;16.77;5.65;;;-3.30;99.90;;;;;;5006680;28;20046;-69
2020/12/27 04:07:10;;;;;;;20.55;7.00;;;-3.30;99.90;;;;;;4983416;28;20038;-69
2020/12/27 04:09:46;;;;;;;13.43;5.25;;;-3.30;99.90;;;;;;4969755;28;20482;-69
2020/12/27 04:12:13;;;;;;;13.95;6.63;;;-3.30;99.90;;;;;;4978836;28;20100;-69
2020/12/27 04:14:42;;;;;;;16.90;5.90;;;-3.30;99.90;;;;;;5011122;28;20054;-69
2020/12/27 04:17:09;;;;;;;18.23;5.97;;;-3.40;99.90;;;;;;5003180;28;20132;-69
2020/12/27 04:19:36;;;;;;;17.85;6.35;;;-3.40;99.90;;;;;;5011743;28;20046;-69
2020/12/27 04:22:09;;;;;;;15.38;6.40;;;-3.40;99.90;;;;;;4967049;28;20616;-69
2020/12/27 04:24:58;;;;;;;23.63;7.45;;;-3.40;99.90;;;;;;4991566;28;20161;-69
2020/12/27 04:27:25;;;;;;;16.48;6.22;;;-3.40;99.90;;;;;;4995043;28;20379;-69
2020/12/27 04:29:51;;;;;;;24.02;6.93;;;-3.40;99.90;;;;;;4979628;28;20073;-69
2020/12/27 04:32:30;;;;;;;20.10;6.97;;;-3.40;99.90;;;;;;4993487;28;20796;-69
2020/12/27 04:35:05;;;;;;;19.70;7.75;;;-3.40;99.90;;;;;;5047996;28;20053;-69
2020/12/27 04:37:35;;;;;;;17.55;6.63;;;-3.40;99.90;;;;;;5036101;28;20172;-69
2020/12/27 04:40:09;;;;;;;23.58;7.47;;;-3.40;99.90;;;;;;5038488;28;20531;-69
2020/12/27 04:42:39;;;;;;;26.13;7.97;;;-3.40;99.90;;;;;;5040087;28;20080;-69
2020/12/27 04:45:08;;;;;;;20.38;7.47;;;-3.40;99.90;;;;;;5030690;28;20041;-69
2020/12/27 04:48:04;;;;;;;22.00;7.88;;;-3.40;99.90;;;;;;5047801;28;20615;-69
2020/12/27 04:51:07;;;;;;;19.85;7.28;;;-3.30;99.90;;;;;;5015168;28;20489;-69
2020/12/27 04:53:38;;;;;;;17.67;6.70;;;-3.40;99.90;;;;;;4991087;28;20081;-69
2020/12/27 04:56:09;;;;;;;24.75;7.03;;;-3.40;99.90;;;;;;4994779;28;20431;-69
2020/12/27 04:58:54;;;;;;;23.83;7.85;;;-3.40;99.90;;;;;;4988814;28;20046;-69
2020/12/27 05:01:23;;;;;;;23.52;9.30;;;-3.40;99.90;;;;;;4991917;28;20050;-69
2020/12/27 05:04:04;;;;;;;20.25;6.40;;;-3.40;99.90;;;;;;5010524;28;20049;-69
2020/12/27 05:06:39;;;;;;;21.45;7.22;;;-3.50;99.90;;;;;;4994250;28;20560;-69
2020/12/27 05:09:10;;;;;;;18.05;6.50;;;-3.40;99.90;;;;;;5010910;28;20042;-69
2020/12/27 05:11:36;;;;;;;22.90;6.80;;;-3.40;99.90;;;;;;4993779;28;20056;-69
2020/12/27 05:14:13;;;;;;;26.42;8.27;;;-3.40;99.90;;;;;;5010043;28;20092;-68
2020/12/27 05:16:57;;;;;;;26.30;9.20;;;-3.50;99.90;;;;;;4982523;28;20050;-69
2020/12/27 05:19:33;;;;;;;22.00;6.72;;;-3.40;99.90;;;;;;5003594;28;20077;-69
2020/12/27 05:22:09;;;;;;;27.67;8.77;;;-3.40;99.90;;;;;;5003065;28;20046;-69
2020/12/27 05:24:52;;;;;;;30.33;8.32;;;-3.40;99.90;;;;;;5025849;28;20045;-69
2020/12/27 05:27:42;;;;;;;27.20;8.65;;;-3.40;99.90;;;;;;5037901;28;20124;-68
2020/12/27 05:30:27;;;;;;;31.60;9.68;;;-3.30;99.90;;;;;;5040269;28;20041;-69
2020/12/27 05:33:19;;;;;;;22.23;8.63;;;-3.30;99.90;;;;;;5008565;28;20672;-69
2020/12/27 05:36:14;;;;;;;26.70;9.35;;;-3.40;99.90;;;;;;5000040;28;20105;-69
2020/12/27 05:38:45;;;;;;;24.95;8.25;;;-3.40;99.90;;;;;;5009467;28;20067;-69
2020/12/27 05:41:31;;;;;;;33.22;9.13;;;-3.30;99.90;;;;;;5018486;28;20172;-69
2020/12/27 05:44:10;;;;;;;28.55;8.45;;;-3.40;99.90;;;;;;5010744;28;20045;-70
2020/12/27 05:46:43;;;;;;;20.05;8.38;;;-3.30;99.90;;;;;;5002897;28;20034;-69
2020/12/27 05:49:11;;;;;;;29.55;9.25;;;-3.30;99.90;;;;;;5008119;28;20042;-69
2020/12/27 05:51:50;;;;;;;27.48;9.57;;;-3.30;99.90;;;;;;5013619;28;20055;-69
2020/12/27 05:54:26;;;;;;;28.83;9.57;;;-3.30;99.90;;;;;;4993730;28;20079;-69
2020/12/27 05:56:58;;;;;;;31.10;8.73;;;-3.30;99.90;;;;;;5012630;28;20049;-70
2020/12/27 05:59:29;;;;;;;22.48;8.60;;;-3.30;99.90;;;;;;4997634;28;20558;-69
2020/12/27 06:01:59;;;;;;;27.30;8.40;;;-3.30;99.90;;;;;;5010400;28;20061;-69
2020/12/27 06:04:38;;;;;;;17.77;6.43;;;-3.30;99.90;;;;;;5027257;28;20041;-70
2020/12/27 06:07:06;;;;;;;28.27;7.43;;;-3.30;99.90;;;;;;5013434;28;20045;-69
2020/12/27 06:09:54;;;;;;;20.85;6.90;;;-3.20;99.90;;;;;;5019330;28;20045;-70
2020/12/27 06:12:45;;;;;;;17.67;6.63;;;-3.20;99.90;;;;;;5036480;28;20444;-69
2020/12/27 06:15:26;;;;;;;23.05;7.63;;;-3.20;99.90;;;;;;5049201;28;20111;-69
2020/12/27 06:18:14;;;;;;;17.73;8.10;;;-3.20;99.90;;;;;;5001692;28;20125;-69
2020/12/27 06:21:08;;;;;;;25.73;8.02;;;-3.20;99.90;;;;;;4988832;28;20136;-69
2020/12/27 06:23:39;;;;;;;24.38;10.02;;;-3.20;99.90;;;;;;4993679;28;20112;-69
2020/12/27 06:26:09;;;;;;;27.80;11.35;;;-3.20;99.90;;;;;;4976983;28;20041;-69
2020/12/27 06:28:43;;;;;;;19.42;7.75;;;-3.20;99.90;;;;;;4988941;28;20542;-69
2020/12/27 06:31:23;;;;;;;24.65;10.43;;;-3.20;99.90;;;;;;4976429;28;20042;-69
2020/12/27 06:33:57;;;;;;;35.25;13.73;;;-3.20;99.90;;;;;;4988940;28;20063;-69
2020/12/27 06:36:40;;;;;;;33.17;12.13;;;-3.20;99.90;;;;;;4988516;28;20046;-69
2020/12/27 06:39:29;;;;;;;28.33;10.20;;;-3.10;99.90;;;;;;4983664;28;20042;-69
2020/12/27 06:42:13;;;;;;;24.55;10.13;;;-3.10;99.90;;;;;;4991320;28;20046;-69
2020/12/27 06:44:58;;;;;;;32.92;11.15;;;-3.10;99.90;;;;;;5003027;28;20738;-69
2020/12/27 06:47:48;;;;;;;36.47;13.27;;;-3.10;99.90;;;;;;4998796;28;20057;-69
2020/12/27 06:50:24;;;;;;;38.65;13.63;;;-3.00;99.90;;;;;;5000961;28;20054;-69
2020/12/27 06:52:59;;;;;;;38.63;13.43;;;-3.00;99.90;;;;;;4987470;28;20050;-69
2020/12/27 06:55:57;;;;;;;42.28;14.70;;;-3.00;99.90;;;;;;5030051;28;20045;-69
2020/12/27 06:58:40;;;;;;;45.78;14.30;;;-3.00;99.90;;;;;;5048291;28;20053;-69
2020/12/27 07:01:20;;;;;;;48.17;17.35;;;-3.00;99.90;;;;;;5041030;28;20488;-70
2020/12/27 07:03:46;;;;;;;47.38;17.02;;;-3.00;99.90;;;;;;5030061;28;20049;-69
2020/12/27 07:06:21;;;;;;;45.92;17.30;;;-2.90;99.90;;;;;;5062539;28;20044;-67
2020/12/27 07:09:02;;;;;;;45.58;16.10;;;-2.80;99.90;;;;;;5044417;28;20041;-67
2020/12/27 07:11:32;;;;;;;42.47;15.57;;;-2.70;99.90;;;;;;5057865;28;20045;-66
2020/12/27 07:14:00;;;;;;;49.63;16.88;;;-2.70;99.90;;;;;;5064517;28;20041;-66
2020/12/27 07:16:48;;;;;;;42.95;15.38;;;-2.60;99.90;;;;;;5034546;28;20055;-67
2020/12/27 07:19:16;;;;;;;35.72;13.25;;;-2.50;99.90;;;;;;5051735;28;20041;-67
2020/12/27 07:21:47;;;;;;;42.30;16.27;;;-2.50;99.90;;;;;;5042270;28;20049;-66
2020/12/27 07:24:18;;;;;;;46.85;16.23;;;-2.50;99.90;;;;;;5031893;28;20063;-66
2020/12/27 07:26:46;;;;;;;46.25;15.77;;;-2.50;99.90;;;;;;5053416;28;20045;-66
2020/12/27 07:29:20;;;;;;;41.00;15.95;;;-2.40;99.90;;;;;;5050072;28;20063;-66
2020/12/27 07:31:52;;;;;;;51.08;17.13;;;-2.40;99.90;;;;;;5046971;28;20053;-67
2020/12/27 07:34:23;;;;;;;46.33;17.08;;;-2.40;99.90;;;;;;5040265;28;20072;-66
2020/12/27 07:37:00;;;;;;;37.47;14.13;;;-2.30;99.90;;;;;;5046258;28;20053;-67
2020/12/27 07:39:56;;;;;;;39.30;15.07;;;-2.20;99.90;;;;;;5050583;28;20518;-66
2020/12/27 07:42:34;;;;;;;34.30;13.18;;;-2.10;99.90;;;;;;5051260;28;20041;-66
2020/12/27 07:45:13;;;;;;;30.27;11.32;;;-2.00;99.90;;;;;;5050336;28;20437;-65
2020/12/27 07:47:41;;;;;;;30.80;11.05;;;-1.90;99.90;;;;;;5042671;28;20045;-66
2020/12/27 07:50:15;;;;;;;34.05;12.93;;;-1.80;99.90;;;;;;5046551;28;20075;-66
2020/12/27 07:52:48;;;;;;;40.40;14.43;;;-1.80;99.90;;;;;;5046766;28;20141;-66
2020/12/27 07:55:24;;;;;;;43.65;14.90;;;-1.60;99.90;;;;;;5029112;28;20061;-66
2020/12/27 07:57:51;;;;;;;42.97;14.73;;;-1.60;99.90;;;;;;5050632;28;20526;-66
2020/12/27 08:00:22;;;;;;;42.13;16.05;;;-1.50;99.90;;;;;;5048368;28;20037;-66
2020/12/27 08:02:49;;;;;;;43.90;15.98;;;-1.50;99.90;;;;;;5045544;28;20052;-66
2020/12/27 08:05:17;;;;;;;44.25;15.93;;;-1.30;99.90;;;;;;5048509;28;20060;-66
2020/12/27 08:07:43;;;;;;;49.28;15.38;;;-1.30;99.90;;;;;;5051164;28;20037;-66
2020/12/27 08:10:28;;;;;;;50.22;14.60;;;-1.20;99.90;;;;;;5052691;28;20053;-66
2020/12/27 08:13:02;;;;;;;35.70;14.45;;;-1.00;99.90;;;;;;5031824;28;20041;-66
2020/12/27 08:15:30;;;;;;;30.80;11.70;;;-0.90;99.90;;;;;;5041969;28;20498;-67
2020/12/27 08:18:04;;;;;;;29.95;12.13;;;-0.80;99.90;;;;;;5044162;28;20555;-66
2020/12/27 08:20:33;;;;;;;29.38;11.93;;;-0.70;99.90;;;;;;5044660;28;20404;-66
2020/12/27 08:23:02;;;;;;;26.38;9.90;;;-0.70;99.90;;;;;;5050590;28;20045;-66
2020/12/27 08:25:29;;;;;;;19.35;7.88;;;-0.60;99.90;;;;;;5050063;28;20034;-67
2020/12/27 08:27:57;;;;;;;16.92;5.35;;;-0.50;99.90;;;;;;5037177;28;20037;-67
2020/12/27 08:30:26;;;;;;;13.90;5.00;;;-0.40;99.90;;;;;;5061609;28;20053;-67
2020/12/27 08:33:09;;;;;;;10.65;3.90;;;-0.30;99.90;;;;;;5063199;28;20067;-67
2020/12/27 08:35:37;;;;;;;10.43;4.67;;;-0.30;99.90;;;;;;5040072;28;20597;-67
2020/12/27 08:38:45;;;;;;;11.00;3.50;;;-0.10;99.90;;;;;;5049145;28;20037;-67
2020/12/27 08:41:31;;;;;;;14.77;3.97;;;0.00;99.90;;;;;;5043621;28;20141;-67
2020/12/27 08:44:17;;;;;;;13.77;4.25;;;0.10;99.90;;;;;;5023893;28;20059;-68
2020/12/27 08:46:48;;;;;;;14.85;4.25;;;0.20;99.90;;;;;;5045474;28;20043;-68
2020/12/27 08:49:25;;;;;;;10.98;3.97;;;0.30;99.90;;;;;;5041919;28;20377;-68
2020/12/27 08:52:02;;;;;;;19.30;5.35;;;0.30;99.90;;;;;;5039947;28;20045;-68
2020/12/27 08:54:30;;;;;;;14.05;4.40;;;0.40;99.90;;;;;;5046696;28;20503;-68
2020/12/27 08:56:57;;;;;;;14.02;4.60;;;0.40;99.90;;;;;;5044756;28;20041;-68
2020/12/27 08:59:27;;;;;;;15.45;3.95;;;0.50;99.90;;;;;;5047357;28;20045;-68
2020/12/27 09:01:53;;;;;;;15.57;4.95;;;0.50;99.90;;;;;;5047962;28;20048;-68
2020/12/27 09:04:21;;;;;;;8.93;4.05;;;0.50;99.90;;;;;;5051233;28;20052;-68
2020/12/27 09:07:07;;;;;;;12.45;4.18;;;0.60;99.80;;;;;;5051041;28;20048;-68
2020/12/27 09:09:33;;;;;;;15.75;4.47;;;0.60;99.90;;;;;;5053145;28;20484;-68
2020/12/27 09:12:08;;;;;;;15.90;5.55;;;0.70;99.90;;;;;;5041389;28;20048;-68
2020/12/27 09:14:37;;;;;;;11.48;4.30;;;0.80;99.90;;;;;;5046427;28;20120;-68
2020/12/27 09:17:08;;;;;;;12.88;4.97;;;0.90;99.40;;;;;;5045760;28;20074;-68
2020/12/27 09:19:35;;;;;;;13.75;4.53;;;1.00;98.80;;;;;;5050965;28;20033;-68
2020/12/27 09:22:04;;;;;;;13.68;4.13;;;1.10;99.00;;;;;;5048348;28;20476;-68
2020/12/27 09:24:32;;;;;;;8.93;3.65;;;1.10;98.40;;;;;;5045817;28;20045;-68
2020/12/27 09:27:09;;;;;;;12.75;4.75;;;1.20;98.20;;;;;;5029328;28;20133;-68
2020/12/27 09:29:36;;;;;;;15.38;4.10;;;1.20;98.00;;;;;;5016992;28;20084;-68
2020/12/27 09:32:10;;;;;;;10.65;4.55;;;1.30;97.30;;;;;;5042157;28;20041;-68
2020/12/27 09:34:37;;;;;;;10.73;4.57;;;1.20;97.30;;;;;;5043665;28;20048;-68
2020/12/27 09:37:23;;;;;;;14.82;5.30;;;1.20;96.70;;;;;;5042661;28;20795;-68
2020/12/27 09:39:57;;;;;;;12.38;5.03;;;1.10;96.70;;;;;;5047113;28;20077;-68
2020/12/27 09:42:28;;;;;;;12.77;4.88;;;1.10;97.40;;;;;;5061315;28;20486;-68
2020/12/27 09:44:56;;;;;;;17.35;5.13;;;1.20;96.80;;;;;;5046044;28;20041;-67
2020/12/27 09:47:27;;;;;;;12.93;4.38;;;1.20;96.90;;;;;;5040637;28;20052;-68
2020/12/27 09:50:03;;;;;;;14.73;4.43;;;1.20;97.00;;;;;;5045759;28;20057;-68
2020/12/27 09:52:29;;;;;;;9.05;3.78;;;1.30;96.80;;;;;;5048706;28;20037;-68
2020/12/27 09:54:56;;;;;;;11.65;4.35;;;1.30;96.50;;;;;;5042532;28;20045;-67
2020/12/27 09:57:27;;;;;;;11.57;4.13;;;1.30;95.80;;;;;;5043687;28;20128;-68
2020/12/27 09:59:54;;;;;;;14.48;4.20;;;1.40;95.90;;;;;;5041517;28;20044;-68
2020/12/27 10:02:21;;;;;;;13.13;4.72;;;1.40;95.90;;;;;;5047309;28;20055;-68
2020/12/27 10:04:48;;;;;;;10.65;3.35;;;1.50;95.40;;;;;;5049220;28;20113;-68
2020/12/27 10:07:15;;;;;;;10.07;3.17;;;1.50;94.60;;;;;;5039687;28;20046;-68
2020/12/27 10:09:41;;;;;;;8.82;3.63;;;1.50;94.20;;;;;;5042267;28;20038;-67
2020/12/27 10:12:10;;;;;;;8.70;3.42;;;1.50;94.40;;;;;;5017006;28;20041;-64
2020/12/27 10:14:36;;;;;;;11.13;4.05;;;1.50;94.50;;;;;;5033245;28;20049;-65
2020/12/27 10:17:03;;;;;;;12.55;4.53;;;1.50;93.50;;;;;;5028920;28;20056;-67
2020/12/27 10:19:31;;;;;;;11.52;4.65;;;1.50;94.20;;;;;;5041598;28;20037;-68
2020/12/27 10:21:57;;;;;;;10.20;3.60;;;1.40;94.50;;;;;;5055099;28;20044;-68
2020/12/27 10:24:28;;;;;;;11.25;4.13;;;1.40;94.60;;;;;;5038289;28;20111;-68
2020/12/27 10:26:58;;;;;;;13.48;4.50;;;1.40;94.90;;;;;;5034316;28;20048;-65
2020/12/27 10:29:29;;;;;;;12.60;4.82;;;1.50;95.30;;;;;;5038259;28;20450;-66
2020/12/27 10:32:02;;;;;;;13.70;4.68;;;1.50;95.20;;;;;;5038383;28;20472;-66
2020/12/27 10:34:29;;;;;;;10.38;4.95;;;1.50;94.70;;;;;;5036831;28;20041;-66
2020/12/27 10:36:58;;;;;;;16.38;4.90;;;1.50;94.70;;;;;;5032894;28;20053;-66
2020/12/27 10:39:26;;;;;;;8.23;3.05;;;1.50;94.50;;;;;;5035542;28;20040;-66
2020/12/27 10:41:54;;;;;;;11.85;4.10;;;1.50;94.40;;;;;;5024350;28;20075;-66
2020/12/27 10:44:21;;;;;;;10.57;4.05;;;1.50;94.20;;;;;;5024705;28;20040;-66
2020/12/27 10:46:51;;;;;;;10.95;4.05;;;1.50;94.30;;;;;;5034966;28;20558;-67
2020/12/27 10:49:20;;;;;;;9.52;4.07;;;1.40;94.70;;;;;;5038834;28;20052;-67
2020/12/27 10:51:47;;;;;;;10.40;3.08;;;1.50;94.30;;;;;;5043884;28;20068;-66
2020/12/27 10:54:16;;;;;;;12.15;4.25;;;1.60;94.60;;;;;;5035949;28;20416;-66
2020/12/27 10:56:43;;;;;;;9.05;3.15;;;1.70;94.30;;;;;;5036083;28;20044;-66
2020/12/27 10:59:11;;;;;;;7.82;3.17;;;1.70;94.10;;;;;;5039953;28;20408;-66
2020/12/27 11:01:46;;;;;;;13.43;4.20;;;1.70;94.00;;;;;;5040694;28;20060;-67
2020/12/27 11:04:13;;;;;;;12.23;4.07;;;1.70;93.80;;;;;;5046714;28;20044;-66
2020/12/27 11:06:41;;;;;;;10.45;3.25;;;1.60;94.20;;;;;;5040942;28;20041;-66
2020/12/27 11:09:08;;;;;;;12.70;3.88;;;1.40;94.90;;;;;;5048659;28;20496;-67
2020/12/27 11:11:36;;;;;;;10.13;3.75;;;1.50;95.00;;;;;;5042142;28;20047;-67
2020/12/27 11:14:03;;;;;;;13.27;4.63;;;1.40;95.50;;;;;;5044902;28;20247;-68
2020/12/27 11:16:33;;;;;;;13.30;4.85;;;1.40;96.00;;;;;;5047888;28;20060;-66
2020/12/27 11:19:03;;;;;;;14.85;4.40;;;1.30;96.10;;;;;;5049271;28;20052;-66
2020/12/27 11:21:29;;;;;;;9.90;2.90;;;1.30;96.50;;;;;;5043284;28;20146;-66
2020/12/27 11:23:57;;;;;;;8.18;3.42;;;1.40;96.70;;;;;;5043025;28;20053;-66
2020/12/27 11:26:23;;;;;;;13.73;4.10;;;1.40;96.80;;;;;;5044035;28;20037;-66
2020/12/27 11:28:50;;;;;;;11.18;3.90;;;1.50;96.90;;;;;;5046584;28;20124;-68
2020/12/27 11:31:19;;;;;;;10.82;3.83;;;1.60;97.10;;;;;;5051613;28;20036;-67
2020/12/27 11:33:47;;;;;;;14.88;4.65;;;1.50;97.10;;;;;;5039365;28;20044;-67
2020/12/27 11:36:14;;;;;;;13.75;4.65;;;1.60;96.90;;;;;;5038970;28;20031;-67
2020/12/27 11:38:40;;;;;;;10.60;4.25;;;1.50;97.00;;;;;;5045922;28;20047;-67
2020/12/27 11:41:10;;;;;;;12.27;4.90;;;1.50;97.80;;;;;;5050130;28;20048;-67
2020/12/27 11:43:37;;;;;;;12.57;4.95;;;1.60;97.90;;;;;;5050916;28;20432;-66
2020/12/27 11:46:03;;;;;;;20.55;5.65;;;1.60;97.80;;;;;;5044264;28;20033;-68
2020/12/27 11:48:30;;;;;;;17.45;5.38;;;1.60;98.30;;;;;;5043397;28;20044;-66
2020/12/27 11:50:57;;;;;;;14.85;5.82;;;1.60;98.20;;;;;;5049207;28;20033;-68
2020/12/27 11:53:23;;;;;;;16.55;5.20;;;1.70;98.20;;;;;;5047901;28;20049;-68
2020/12/27 11:55:50;;;;;;;11.80;4.55;;;1.60;98.10;;;;;;5043112;28;20040;-69
2020/12/27 11:58:16;;;;;;;16.42;5.43;;;1.70;98.10;;;;;;5035480;28;20057;-68
2020/12/27 12:00:43;;;;;;;15.15;5.28;;;1.70;98.10;;;;;;5053570;28;20056;-69
2020/12/27 12:03:10;;;;;;;13.10;5.20;;;1.70;98.40;;;;;;5006177;28;20049;-66
2020/12/27 12:05:37;;;;;;;14.88;5.20;;;1.70;98.20;;;;;;5039311;28;20510;-67
2020/12/27 12:08:03;;;;;;;15.10;5.65;;;1.90;98.20;;;;;;5035249;28;20055;-67
2020/12/27 12:10:30;;;;;;;10.88;4.70;;;2.00;97.50;;;;;;5048741;28;20105;-67
2020/12/27 12:12:56;;;;;;;14.60;4.72;;;2.10;97.40;;;;;;5040344;28;20807;-68
2020/12/27 12:15:23;;;;;;;15.13;4.85;;;2.30;97.10;;;;;;5037341;28;20048;-69
2020/12/27 12:17:49;;;;;;;14.70;6.00;;;2.60;96.10;;;;;;5038453;28;20037;-69
2020/12/27 12:23:01;;;;;;;16.20;5.35;;;2.70;95.60;;;;;;5039917;28;20033;-67
2020/12/27 12:25:28;;;;;;;12.23;5.18;;;2.90;95.90;;;;;;5038342;28;20045;-67
2020/12/27 12:27:54;;;;;;;15.40;6.15;;;2.90;94.90;;;;;;5036544;28;20041;-66
2020/12/27 12:30:21;;;;;;;15.15;5.57;;;2.80;94.90;;;;;;5035230;28;20045;-67
2020/12/27 12:32:47;;;;;;;14.57;5.65;;;2.80;95.20;;;;;;5033916;28;20061;-66
2020/12/27 12:35:14;;;;;;;14.15;5.47;;;2.80;95.00;;;;;;5038474;28;20051;-67
2020/12/27 12:37:41;;;;;;;13.98;5.70;;;2.80;94.70;;;;;;5032468;28;20052;-67
2020/12/27 12:40:07;;;;;;;13.20;5.63;;;2.60;94.80;;;;;;5035266;28;20048;-67
2020/12/27 12:42:38;;;;;;;14.88;5.28;;;2.60;95.10;;;;;;5044819;28;20060;-67
2020/12/27 12:45:07;;;;;;;11.90;5.07;;;2.40;96.00;;;;;;5042503;28;20037;-66
2020/12/27 12:47:34;;;;;;;15.35;4.75;;;2.40;96.60;;;;;;5046281;28;20044;-67
2020/12/27 12:50:03;;;;;;;16.33;5.72;;;2.40;96.20;;;;;;5033835;28;20053;-67
2020/12/27 12:52:30;;;;;;;13.00;4.63;;;2.40;96.00;;;;;;5031851;28;20049;-67
2020/12/27 12:54:57;;;;;;;13.85;5.40;;;2.40;96.00;;;;;;5037554;28;20053;-67
2020/12/27 12:57:24;;;;;;;12.32;4.85;;;2.30;96.40;;;;;;5039907;28;20526;-67
2020/12/27 12:59:51;;;;;;;11.50;4.43;;;2.10;96.90;;;;;;5039892;28;20045;-66
2020/12/27 13:02:19;;;;;;;11.25;4.57;;;2.10;97.30;;;;;;5035742;28;20041;-66
2020/12/27 13:04:45;;;;;;;16.50;5.57;;;2.10;97.50;;;;;;5037972;28;20502;-66
2020/12/27 13:07:12;;;;;;;12.52;4.47;;;2.10;97.90;;;;;;5034453;28;20447;-68